Van Horne, Iowa
Current Conditions -  °F | °C
As of 3:15 PM on Sunday 23 Nov 2014 (Local Time) from KVTI Reporting Station
Drizzle Drizzle  
Wind Chill: 50°   Ceiling: 500
Heat Index: 50°   Visibility: 2mi
Dew Point: 49°   Wind: 6mph
Humidity: 95%   Direction: 150°SSE
Pressure: 29.34"   Gusts: NA
Location:  42.01°N, 92.09°W
Report Text: KVTI 232115Z AUTO 15005KT 2SM -DZ OVC005 10/09 A2934 RMK AO2 T01010093
Loading
Personal Weather Stations






























Interactive Weather Map New forecast layout! Learn more

10-Day Weather Forecast

Advertisements
Track Severe Weather on mobile